Time,TemperatureF,DewpointF,PressureIn,WindDirection,WindDirectionDegrees,WindSpeedMPH,WindSpeedGustMPH,Humidity,HourlyPrecipIn,Conditions,Clouds,dailyrainin,SoftwareType,DateUTC
2014-01-23 00:00:00,8.0,4.4,19.53,SSW,212,0.0,0.0,85,0.00,,,0.00,Wunderground v.1.15,2014-01-23 05:00:00,
2014-01-23 00:05:00,7.9,4.3,19.53,SSW,212,0.0,0.0,85,0.00,,,0.00,Wunderground v.1.15,2014-01-23 05:05:00,
2014-01-23 00:10:00,7.8,4.2,19.53,SSW,212,0.0,0.0,85,0.00,,,0.00,Wunderground v.1.15,2014-01-23 05:10:00,
2014-01-23 00:20:00,7.6,4.0,19.53,SSW,211,0.0,0.0,85,0.00,,,0.00,Wunderground v.1.15,2014-01-23 05:20:00,
2014-01-23 00:25:00,7.3,3.7,19.53,SSW,211,0.0,0.0,85,0.00,,,0.00,Wunderground v.1.15,2014-01-23 05:25:00,
2014-01-23 00:35:00,7.1,3.5,19.53,SSW,212,0.0,0.0,85,0.00,,,0.00,Wunderground v.1.15,2014-01-23 05:35:00,
2014-01-23 00:40:00,7.1,3.5,19.53,SSW,212,0.0,0.0,85,0.00,,,0.00,Wunderground v.1.15,2014-01-23 05:40:00,
2014-01-23 00:45:00,7.1,3.5,19.53,SSW,212,0.0,0.0,85,0.00,,,0.00,Wunderground v.1.15,2014-01-23 05:45:00,
2014-01-23 00:55:00,7.0,3.4,19.53,SSW,212,0.0,0.0,85,0.00,,,0.00,Wunderground v.1.15,2014-01-23 05:55:00,
2014-01-23 01:00:00,6.9,3.3,19.53,SSW,212,0.0,0.0,85,0.00,,,0.00,Wunderground v.1.15,2014-01-23 06:00:00,
2014-01-23 01:05:00,6.7,3.1,19.53,SSW,212,0.0,0.0,85,0.00,,,0.00,Wunderground v.1.15,2014-01-23 06:05:00,
2014-01-23 01:10:00,6.5,3.0,19.53,SSW,212,0.0,0.0,85,0.00,,,0.00,Wunderground v.1.15,2014-01-23 06:10:00,
2014-01-23 01:20:00,6.1,2.6,19.53,SSW,212,0.0,0.0,85,0.00,,,0.00,Wunderground v.1.15,2014-01-23 06:20:00,
2014-01-23 01:30:00,5.7,2.2,19.53,SSW,212,0.0,0.0,85,0.00,,,0.00,Wunderground v.1.15,2014-01-23 06:30:00,
2014-01-23 01:40:00,5.0,1.5,19.53,SSW,211,0.0,0.0,85,0.00,,,0.00,Wunderground v.1.15,2014-01-23 06:40:00,
2014-01-23 01:50:00,4.6,0.8,19.53,SSW,212,0.0,0.0,84,0.00,,,0.00,Wunderground v.1.15,2014-01-23 06:50:00,
2014-01-23 01:55:00,4.4,0.9,19.53,SSW,211,0.0,0.0,85,0.00,,,0.00,Wunderground v.1.15,2014-01-23 06:55:00,
2014-01-23 02:05:00,4.2,0.4,19.53,SSW,211,0.0,0.0,84,0.00,,,0.00,Wunderground v.1.15,2014-01-23 07:05:00,
2014-01-23 02:10:00,4.0,0.2,19.53,SSW,212,0.0,0.0,84,0.00,,,0.00,Wunderground v.1.15,2014-01-23 07:10:00,
2014-01-23 02:15:00,3.9,0.1,19.53,SSW,212,0.0,0.0,84,0.00,,,0.00,Wunderground v.1.15,2014-01-23 07:15:00,
2014-01-23 02:25:00,3.6,-0.2,19.53,SSW,212,0.0,0.0,84,0.00,,,0.00,Wunderground v.1.15,2014-01-23 07:25:00,
2014-01-23 02:30:00,3.6,0.1,19.53,SSW,211,0.0,0.0,85,0.00,,,0.00,Wunderground v.1.15,2014-01-23 07:30:00,
2014-01-23 02:40:00,2.9,-0.8,19.53,SSW,212,0.0,0.0,84,0.00,,,0.00,Wunderground v.1.15,2014-01-23 07:40:00,
2014-01-23 02:45:00,2.5,-1.2,19.53,SSW,211,0.0,0.0,84,0.00,,,0.00,Wunderground v.1.15,2014-01-23 07:45:00,
2014-01-23 02:50:00,2.1,-1.6,19.53,SSW,212,0.0,0.0,84,0.00,,,0.00,Wunderground v.1.15,2014-01-23 07:50:00,
2014-01-23 03:00:00,1.7,-2.0,19.53,SSW,211,0.0,0.0,84,0.00,,,0.00,Wunderground v.1.15,2014-01-23 08:00:00,
2014-01-23 03:05:00,1.5,-2.2,19.53,SSW,212,0.0,0.0,84,0.00,,,0.00,Wunderground v.1.15,2014-01-23 08:05:00,
2014-01-23 03:10:00,1.3,-2.4,19.53,SSW,211,0.0,0.0,84,0.00,,,0.00,Wunderground v.1.15,2014-01-23 08:10:00,
2014-01-23 03:20:00,0.5,-3.2,19.53,SSW,212,0.0,0.0,84,0.00,,,0.00,Wunderground v.1.15,2014-01-23 08:20:00,
2014-01-23 03:30:00,-0.7,-4.6,19.53,SSW,212,0.0,0.0,83,0.00,,,0.00,Wunderground v.1.15,2014-01-23 08:30:00,
2014-01-23 03:35:00,-1.3,-5.2,19.52,SSW,211,0.0,0.0,83,0.00,,,0.00,Wunderground v.1.15,2014-01-23 08:35:00,
2014-01-23 03:45:00,-1.9,-5.8,19.52,SSW,211,0.0,0.0,83,0.00,,,0.00,Wunderground v.1.15,2014-01-23 08:45:00,
2014-01-23 03:55:00,-1.5,-5.2,19.52,SSW,212,0.0,0.0,84,0.00,,,0.00,Wunderground v.1.15,2014-01-23 08:55:00,
2014-01-23 04:05:00,-0.6,-4.3,19.52,SSW,213,0.0,0.0,84,0.00,,,0.00,Wunderground v.1.15,2014-01-23 09:05:00,
2014-01-23 04:11:00,0.0,-3.4,19.52,SSW,213,0.0,0.0,85,0.00,,,0.00,Wunderground v.1.15,2014-01-23 09:11:00,
2014-01-23 04:20:00,0.0,-3.7,19.52,West,268,0.0,0.0,84,0.00,,,0.00,Wunderground v.1.15,2014-01-23 09:20:00,
2014-01-23 04:30:00,1.3,-2.2,19.52,West,268,0.0,0.0,85,0.00,,,0.00,Wunderground v.1.15,2014-01-23 09:30:00,
2014-01-23 04:40:00,1.9,-1.3,19.52,West,268,0.0,0.0,86,0.00,,,0.00,Wunderground v.1.15,2014-01-23 09:40:00,
2014-01-23 04:50:00,1.9,-1.6,19.52,West,267,0.0,0.0,85,0.00,,,0.00,Wunderground v.1.15,2014-01-23 09:50:00,
2014-01-23 04:55:00,2.2,-1.3,19.52,West,267,0.0,0.0,85,0.00,,,0.00,Wunderground v.1.15,2014-01-23 09:55:00,
2014-01-23 05:05:00,2.8,-0.4,19.52,WSW,249,0.0,0.0,86,0.00,,,0.00,Wunderground v.1.15,2014-01-23 10:05:00,
2014-01-23 05:11:00,2.8,-0.7,19.52,WSW,249,0.0,0.0,85,0.00,,,0.00,Wunderground v.1.15,2014-01-23 10:11:00,
2014-01-23 05:20:00,2.8,-0.7,19.52,WSW,245,1.0,1.0,85,0.00,,,0.00,Wunderground v.1.15,2014-01-23 10:20:00,
2014-01-23 05:30:00,2.8,-0.7,19.52,SW,229,0.0,1.0,85,0.00,,,0.00,Wunderground v.1.15,2014-01-23 10:30:00,
2014-01-23 05:40:00,3.1,-0.4,19.52,WSW,248,0.0,0.0,85,0.00,,,0.00,Wunderground v.1.15,2014-01-23 10:40:00,
2014-01-23 05:50:00,3.3,-0.2,19.52,WSW,248,0.0,0.0,85,0.00,,,0.00,Wunderground v.1.15,2014-01-23 10:50:00,
2014-01-23 06:00:00,3.4,-0.1,19.52,WSW,248,0.0,0.0,85,0.00,,,0.00,Wunderground v.1.15,2014-01-23 11:00:00,
2014-01-23 06:10:00,3.5,0.0,19.52,West,264,0.0,2.0,85,0.00,,,0.00,Wunderground v.1.15,2014-01-23 11:10:00,
2014-01-23 06:20:00,3.6,0.1,19.52,West,264,0.0,0.0,85,0.00,,,0.00,Wunderground v.1.15,2014-01-23 11:20:00,
2014-01-23 06:30:00,3.7,0.4,19.52,West,280,0.0,0.0,86,0.00,,,0.00,Wunderground v.1.15,2014-01-23 11:30:00,
2014-01-23 06:35:00,3.8,0.3,19.52,West,280,0.0,0.0,85,0.00,,,0.00,Wunderground v.1.15,2014-01-23 11:35:00,
2014-01-23 06:45:00,3.9,0.4,19.52,West,281,0.0,0.0,85,0.00,,,0.00,Wunderground v.1.15,2014-01-23 11:45:00,
2014-01-23 06:55:00,4.0,0.5,19.52,NW,313,0.0,0.0,85,0.00,,,0.00,Wunderground v.1.15,2014-01-23 11:55:00,
2014-01-23 07:05:00,4.2,0.7,19.52,NW,313,0.0,0.0,85,0.00,,,0.00,Wunderground v.1.15,2014-01-23 12:05:00,
2014-01-23 07:10:00,4.2,0.7,19.52,NW,313,0.0,0.0,85,0.00,,,0.00,Wunderground v.1.15,2014-01-23 12:10:00,
2014-01-23 07:20:00,4.3,0.8,19.52,North,355,0.0,0.0,85,0.00,,,0.00,Wunderground v.1.15,2014-01-23 12:20:00,
2014-01-23 07:30:00,4.5,1.0,19.52,North,355,0.0,0.0,85,0.00,,,0.00,Wunderground v.1.15,2014-01-23 12:30:00,
2014-01-23 07:40:00,4.7,1.2,19.52,North,355,0.0,0.0,85,0.00,,,0.00,Wunderground v.1.15,2014-01-23 12:40:00,
2014-01-23 07:45:00,4.7,1.2,19.52,NNW,341,0.0,0.0,85,0.00,,,0.00,Wunderground v.1.15,2014-01-23 12:45:00,
2014-01-23 07:55:00,4.8,1.3,19.52,North,351,0.0,0.0,85,0.00,,,0.00,Wunderground v.1.15,2014-01-23 12:55:00,
2014-01-23 08:00:00,4.9,1.4,19.52,North,351,0.0,0.0,85,0.00,,,0.00,Wunderground v.1.15,2014-01-23 13:00:00,
2014-01-23 08:10:00,5.0,1.7,19.52,North,350,0.0,0.0,86,0.00,,,0.00,Wunderground v.1.15,2014-01-23 13:10:00,
2014-01-23 08:20:00,5.2,1.7,19.52,North,350,0.0,0.0,85,0.00,,,0.00,Wunderground v.1.15,2014-01-23 13:20:00,
2014-01-23 08:30:00,5.5,2.0,19.52,NW,304,0.0,0.0,85,0.00,,,0.00,Wunderground v.1.15,2014-01-23 13:30:00,
2014-01-23 08:40:00,5.7,2.2,19.52,NW,315,0.0,1.0,85,0.00,,,0.00,Wunderground v.1.15,2014-01-23 13:40:00,
2014-01-23 08:50:00,5.8,2.3,19.52,NW,310,0.0,0.0,85,0.00,,,0.00,Wunderground v.1.15,2014-01-23 13:50:00,
2014-01-23 09:00:00,5.9,2.4,19.52,NW,310,0.0,0.0,85,0.00,,,0.00,Wunderground v.1.15,2014-01-23 14:00:00,
2014-01-23 09:10:00,6.1,2.8,19.52,NW,315,0.0,0.0,86,0.00,,,0.00,Wunderground v.1.15,2014-01-23 14:10:00,
2014-01-23 09:20:00,6.5,3.2,19.52,NW,306,1.0,3.0,86,0.00,,,0.00,Wunderground v.1.15,2014-01-23 14:20:00,
2014-01-23 09:30:00,6.9,3.6,19.52,NNW,329,1.0,2.0,86,0.00,,,0.00,Wunderground v.1.15,2014-01-23 14:30:00,
2014-01-23 09:35:00,7.1,3.8,19.52,NW,324,1.0,1.0,86,0.00,,,0.00,Wunderground v.1.15,2014-01-23 14:35:00,
2014-01-23 09:45:00,7.9,4.6,19.52,NW,325,0.0,0.0,86,0.00,,,0.00,Wunderground v.1.15,2014-01-23 14:45:00,
2014-01-23 09:50:00,8.5,5.2,19.52,NNW,327,0.0,0.0,86,0.00,,,0.00,Wunderground v.1.15,2014-01-23 14:50:00,
2014-01-23 10:00:00,9.1,5.5,19.52,North,349,1.0,1.0,85,0.00,,,0.00,Wunderground v.1.15,2014-01-23 15:00:00,
2014-01-23 10:05:00,9.5,6.2,19.52,NW,325,1.0,1.0,86,0.00,,,0.00,Wunderground v.1.15,2014-01-23 15:05:00,
2014-01-23 10:11:00,9.5,5.9,19.52,NW,312,1.0,1.0,85,0.00,,,0.00,Wunderground v.1.15,2014-01-23 15:11:00,
2014-01-23 10:20:00,10.2,6.3,19.52,NW,319,2.0,2.0,84,0.00,,,0.00,Wunderground v.1.15,2014-01-23 15:20:00,
2014-01-23 10:30:00,10.6,6.7,19.52,NNE,28,2.0,2.0,84,0.00,,,0.00,Wunderground v.1.15,2014-01-23 15:30:00,
2014-01-23 10:35:00,10.9,6.8,19.52,West,280,1.0,1.0,83,0.00,,,0.00,Wunderground v.1.15,2014-01-23 15:35:00,
2014-01-23 10:45:00,11.6,7.2,19.52,NW,311,1.0,1.0,82,0.00,,,0.00,Wunderground v.1.15,2014-01-23 15:45:00,
2014-01-23 10:50:00,11.5,7.1,19.52,West,281,3.0,3.0,82,0.00,,,0.00,Wunderground v.1.15,2014-01-23 15:50:00,
2014-01-23 11:00:00,12.6,8.1,19.52,North,355,1.0,2.0,82,0.00,,,0.00,Wunderground v.1.15,2014-01-23 16:00:00,
2014-01-23 11:05:00,12.9,8.2,19.52,NW,307,1.0,1.0,81,0.00,,,0.00,Wunderground v.1.15,2014-01-23 16:05:00,
2014-01-23 11:10:00,13.6,8.9,19.52,West,262,1.0,1.0,81,0.00,,,0.00,Wunderground v.1.15,2014-01-23 16:10:00,
2014-01-23 11:20:00,13.3,8.0,19.52,NNW,331,2.0,2.0,79,0.00,,,0.00,Wunderground v.1.15,2014-01-23 16:20:00,
2014-01-23 11:25:00,12.6,7.3,19.52,NW,325,3.0,3.0,79,0.00,,,0.00,Wunderground v.1.15,2014-01-23 16:25:00,
2014-01-23 11:35:00,12.6,7.6,19.52,NW,304,5.0,5.0,80,0.00,,,0.00,Wunderground v.1.15,2014-01-23 16:35:00,
2014-01-23 11:40:00,13.0,8.0,19.52,North,360,4.0,5.0,80,0.00,,,0.00,Wunderground v.1.15,2014-01-23 16:40:00,
2014-01-23 11:50:00,13.7,9.0,19.52,West,272,3.0,4.0,81,0.00,,,0.00,Wunderground v.1.15,2014-01-23 16:50:00,
2014-01-23 12:00:00,14.0,9.5,18.41,West,272,4.0,7.0,82,0.00,,,0.00,Wunderground v.1.15,2014-01-23 17:00:00,
2014-01-23 12:10:00,14.4,9.9,18.41,NW,314,3.0,4.0,82,0.00,,,0.00,Wunderground v.1.15,2014-01-23 17:10:00,
2014-01-23 12:20:00,14.6,10.4,18.41,West,265,5.0,7.0,83,0.00,,,0.00,Wunderground v.1.15,2014-01-23 17:20:00,
2014-01-23 12:30:00,13.1,8.4,18.41,NNW,336,7.0,7.0,81,0.00,,,0.00,Wunderground v.1.15,2014-01-23 17:30:00,
2014-01-23 12:35:00,13.4,8.9,18.41,WSW,255,5.0,5.0,82,0.00,,,0.00,Wunderground v.1.15,2014-01-23 17:35:00,
2014-01-23 12:45:00,14.1,9.3,19.51,West,261,3.0,6.0,81,0.00,,,0.00,Wunderground v.1.15,2014-01-23 17:45:00,
2014-01-23 12:50:00,14.0,9.0,19.51,NNW,330,4.0,6.0,80,0.00,,,0.00,Wunderground v.1.15,2014-01-23 17:50:00,
2014-01-23 13:00:00,14.4,9.4,19.51,NW,326,6.0,6.0,80,0.00,,,0.00,Wunderground v.1.15,2014-01-23 18:00:00,
2014-01-23 13:10:00,14.1,9.1,19.51,ENE,62,4.0,8.0,80,0.00,,,0.00,Wunderground v.1.15,2014-01-23 18:10:00,
2014-01-23 13:20:00,14.1,9.3,19.51,NNW,338,5.0,5.0,81,0.00,,,0.00,Wunderground v.1.15,2014-01-23 18:20:00,
2014-01-23 13:30:00,13.8,8.8,19.51,NNW,330,4.0,11.0,80,0.00,,,0.00,Wunderground v.1.15,2014-01-23 18:30:00,
2014-01-23 13:40:00,14.1,8.8,19.51,NNW,347,3.0,4.0,79,0.00,,,0.00,Wunderground v.1.15,2014-01-23 18:40:00,
2014-01-23 13:45:00,14.1,8.8,19.51,NNW,334,5.0,5.0,79,0.00,,,0.00,Wunderground v.1.15,2014-01-23 18:45:00,
2014-01-23 13:55:00,14.3,8.7,19.51,North,5,5.0,5.0,78,0.00,,,0.00,Wunderground v.1.15,2014-01-23 18:55:00,
2014-01-23 14:05:00,15.0,9.1,19.51,North,355,6.0,11.0,77,0.00,,,0.00,Wunderground v.1.15,2014-01-23 19:05:00,
2014-01-23 14:10:00,15.1,8.9,19.51,NW,323,5.0,11.0,76,0.00,,,0.00,Wunderground v.1.15,2014-01-23 19:10:00,
2014-01-23 14:15:00,15.5,9.0,19.51,NW,317,3.0,4.0,75,0.00,,,0.00,Wunderground v.1.15,2014-01-23 19:15:00,
2014-01-23 14:25:00,16.2,9.1,19.51,North,349,5.0,8.0,73,0.00,,,0.00,Wunderground v.1.15,2014-01-23 19:25:00,
2014-01-23 14:30:00,16.0,8.9,19.51,NNE,17,5.0,8.0,73,0.00,,,0.00,Wunderground v.1.15,2014-01-23 19:30:00,
2014-01-23 14:40:00,14.8,7.4,19.51,North,11,5.0,14.0,72,0.00,,,0.00,Wunderground v.1.15,2014-01-23 19:40:00,
2014-01-23 14:45:00,13.9,6.8,19.51,North,355,6.0,12.0,73,0.00,,,0.00,Wunderground v.1.15,2014-01-23 19:45:00,
2014-01-23 14:55:00,13.6,7.1,19.51,North,355,6.0,6.0,75,0.00,,,0.00,Wunderground v.1.15,2014-01-23 19:55:00,
2014-01-23 15:00:00,13.7,6.9,19.51,NNW,327,5.0,6.0,74,0.00,,,0.00,Wunderground v.1.15,2014-01-23 20:00:00,
2014-01-23 15:10:00,14.1,7.0,19.51,North,360,6.0,9.0,73,0.00,,,0.00,Wunderground v.1.15,2014-01-23 20:10:00,
2014-01-23 15:20:00,13.8,6.4,19.51,North,360,4.0,8.0,72,0.00,,,0.00,Wunderground v.1.15,2014-01-23 20:20:00,
2014-01-23 15:25:00,13.7,6.3,19.51,North,350,4.0,6.0,72,0.00,,,0.00,Wunderground v.1.15,2014-01-23 20:25:00,
2014-01-23 15:35:00,13.5,5.8,19.51,NW,319,4.0,4.0,71,0.00,,,0.00,Wunderground v.1.15,2014-01-23 20:35:00,
2014-01-23 15:40:00,13.3,5.6,19.80,NNE,13,5.0,5.0,71,0.00,,,0.00,Wunderground v.1.15,2014-01-23 20:40:00,
2014-01-23 15:50:00,14.0,6.3,19.80,North,11,4.0,5.0,71,0.00,,,0.00,Wunderground v.1.15,2014-01-23 20:50:00,
2014-01-23 15:55:00,14.4,6.1,19.80,NNE,27,3.0,3.0,69,0.00,,,0.00,Wunderground v.1.15,2014-01-23 20:55:00,
2014-01-23 16:05:00,14.6,6.0,19.80,NNE,18,3.0,3.0,68,0.00,,,0.00,Wunderground v.1.15,2014-01-23 21:05:00,
2014-01-23 16:10:00,14.8,5.8,19.80,North,351,4.0,4.0,67,0.00,,,0.00,Wunderground v.1.15,2014-01-23 21:10:00,
2014-01-23 16:20:00,14.6,5.3,19.80,North,355,4.0,5.0,66,0.00,,,0.00,Wunderground v.1.15,2014-01-23 21:20:00,
2014-01-23 16:30:00,14.8,5.2,19.80,NW,322,3.0,9.0,65,0.00,,,0.00,Wunderground v.1.15,2014-01-23 21:30:00,
2014-01-23 16:35:00,14.6,4.6,19.80,NNE,22,4.0,4.0,64,0.00,,,0.00,Wunderground v.1.15,2014-01-23 21:35:00,
2014-01-23 16:45:00,14.1,4.1,19.51,NNW,346,3.0,3.0,64,0.00,,,0.00,Wunderground v.1.15,2014-01-23 21:45:00,
2014-01-23 16:50:00,14.1,3.8,19.51,North,9,2.0,3.0,63,0.00,,,0.00,Wunderground v.1.15,2014-01-23 21:50:00,
2014-01-23 17:00:00,13.6,3.3,19.50,NNE,14,1.0,2.0,63,0.00,,,0.00,Wunderground v.1.15,2014-01-23 22:00:00,
2014-01-23 17:05:00,13.6,3.0,19.50,North,349,1.0,1.0,62,0.00,,,0.00,Wunderground v.1.15,2014-01-23 22:05:00,
2014-01-23 17:10:00,13.4,2.8,19.50,North,349,0.0,1.0,62,0.00,,,0.00,Wunderground v.1.15,2014-01-23 22:10:00,
2014-01-23 17:20:00,12.8,2.2,19.50,North,349,0.0,1.0,62,0.00,,,0.00,Wunderground v.1.15,2014-01-23 22:20:00,
2014-01-23 17:30:00,12.2,1.7,19.50,North,350,0.0,0.0,62,0.00,,,0.00,Wunderground v.1.15,2014-01-23 22:30:00,
2014-01-23 17:40:00,10.8,1.0,19.50,North,349,0.0,0.0,64,0.00,,,0.00,Wunderground v.1.15,2014-01-23 22:40:00,
2014-01-23 17:50:00,9.5,0.1,19.50,North,349,0.0,0.0,65,0.00,,,0.00,Wunderground v.1.15,2014-01-23 22:50:00,
2014-01-23 17:55:00,8.5,-0.5,19.50,North,350,0.0,0.0,66,0.00,,,0.00,Wunderground v.1.15,2014-01-23 22:55:00,
2014-01-23 18:05:00,6.9,-1.8,19.50,North,350,0.0,0.0,67,0.00,,,0.00,Wunderground v.1.15,2014-01-23 23:05:00,
2014-01-23 18:11:00,5.9,-2.1,19.50,North,349,0.0,0.0,69,0.00,,,0.00,Wunderground v.1.15,2014-01-23 23:11:00,
2014-01-23 18:20:00,4.6,-3.0,19.50,North,350,0.0,0.0,70,0.00,,,0.00,Wunderground v.1.15,2014-01-23 23:20:00,
2014-01-23 18:25:00,3.9,-3.1,19.50,North,349,0.0,0.0,72,0.00,,,0.00,Wunderground v.1.15,2014-01-23 23:25:00,
2014-01-23 18:35:00,3.0,-3.7,19.50,North,350,0.0,0.0,73,0.00,,,0.00,Wunderground v.1.15,2014-01-23 23:35:00,
2014-01-23 18:40:00,2.6,-3.8,19.50,North,349,0.0,0.0,74,0.00,,,0.00,Wunderground v.1.15,2014-01-23 23:40:00,
2014-01-23 18:50:00,1.6,-4.5,19.50,North,349,0.0,0.0,75,0.00,,,0.00,Wunderground v.1.15,2014-01-23 23:50:00,
2014-01-23 18:55:00,1.3,-4.5,19.50,North,350,0.0,0.0,76,0.00,,,0.00,Wunderground v.1.15,2014-01-23 23:55:00,
2014-01-23 19:05:00,0.6,-4.9,19.50,North,350,0.0,0.0,77,0.00,,,0.00,Wunderground v.1.15,2014-01-24 00:05:00,
2014-01-23 19:11:00,0.2,-5.3,19.50,North,349,0.0,0.0,77,0.00,,,0.00,Wunderground v.1.15,2014-01-24 00:11:00,
2014-01-23 19:20:00,-0.4,-5.6,19.50,North,350,0.0,0.0,78,0.00,,,0.00,Wunderground v.1.15,2014-01-24 00:20:00,
2014-01-23 19:25:00,-1.0,-6.2,19.50,North,349,0.0,0.0,78,0.00,,,0.00,Wunderground v.1.15,2014-01-24 00:25:00,
2014-01-23 19:35:00,-1.4,-6.3,19.50,North,349,0.0,0.0,79,0.00,,,0.00,Wunderground v.1.15,2014-01-24 00:35:00,
2014-01-23 19:45:00,-1.8,-6.7,19.50,North,349,0.0,0.0,79,0.00,,,0.00,Wunderground v.1.15,2014-01-24 00:45:00,
2014-01-23 19:55:00,-2.6,-7.5,19.50,North,350,0.0,0.0,79,0.00,,,0.00,Wunderground v.1.15,2014-01-24 00:55:00,
2014-01-23 20:00:00,-3.0,-7.6,19.50,North,349,0.0,0.0,80,0.00,,,0.00,Wunderground v.1.15,2014-01-24 01:00:00,
2014-01-23 20:05:00,-3.3,-7.9,19.50,North,350,0.0,0.0,80,0.00,,,0.00,Wunderground v.1.15,2014-01-24 01:05:00,
2014-01-23 20:11:00,-3.5,-8.1,19.50,North,350,0.0,0.0,80,0.00,,,0.00,Wunderground v.1.15,2014-01-24 01:11:00,
2014-01-23 20:20:00,-4.2,-8.8,19.50,WSW,244,0.0,1.0,80,0.00,,,0.00,Wunderground v.1.15,2014-01-24 01:20:00,
2014-01-23 20:30:00,-4.9,-9.5,19.50,WSW,244,0.0,0.0,80,0.00,,,0.00,Wunderground v.1.15,2014-01-24 01:30:00,
2014-01-23 20:35:00,-5.2,-9.8,19.50,WSW,244,0.0,1.0,80,0.00,,,0.00,Wunderground v.1.15,2014-01-24 01:35:00,
2014-01-23 20:45:00,-5.6,-10.2,19.50,WSW,244,0.0,0.0,80,0.00,,,0.00,Wunderground v.1.15,2014-01-24 01:45:00,
2014-01-23 20:50:00,-5.8,-10.4,19.50,WSW,244,0.0,0.0,80,0.00,,,0.00,Wunderground v.1.15,2014-01-24 01:50:00,
2014-01-23 21:00:00,-6.2,-10.8,19.50,WSW,244,0.0,0.0,80,0.00,,,0.00,Wunderground v.1.15,2014-01-24 02:00:00,
2014-01-23 21:05:00,-6.4,-11.0,19.50,WSW,244,0.0,0.0,80,0.00,,,0.00,Wunderground v.1.15,2014-01-24 02:05:00,
2014-01-23 21:11:00,-6.6,-11.2,19.50,WSW,244,0.0,0.0,80,0.00,,,0.00,Wunderground v.1.15,2014-01-24 02:11:00,
2014-01-23 21:20:00,-6.8,-11.4,19.50,WSW,244,0.0,0.0,80,0.00,,,0.00,Wunderground v.1.15,2014-01-24 02:20:00,
2014-01-23 21:30:00,-6.9,-11.4,19.50,WSW,244,0.0,0.0,80,0.00,,,0.00,Wunderground v.1.15,2014-01-24 02:30:00,
2014-01-23 21:35:00,-7.0,-11.5,19.50,WSW,244,0.0,0.0,80,0.00,,,0.00,Wunderground v.1.15,2014-01-24 02:35:00,
2014-01-23 21:45:00,-6.7,-11.0,19.50,WSW,244,0.0,0.0,81,0.00,,,0.00,Wunderground v.1.15,2014-01-24 02:45:00,
2014-01-23 21:50:00,-6.6,-11.2,19.50,WSW,244,0.0,0.0,80,0.00,,,0.00,Wunderground v.1.15,2014-01-24 02:50:00,
2014-01-23 22:00:00,-7.1,-11.6,19.50,WSW,244,0.0,0.0,80,0.00,,,0.00,Wunderground v.1.15,2014-01-24 03:00:00,
2014-01-23 22:11:00,-7.1,-11.6,19.50,WSW,244,0.0,0.0,80,0.00,,,0.00,Wunderground v.1.15,2014-01-24 03:11:00,
2014-01-23 22:20:00,-7.3,-11.8,19.50,WSW,244,0.0,0.0,80,0.00,,,0.00,Wunderground v.1.15,2014-01-24 03:20:00,
2014-01-23 22:30:00,-7.3,-11.8,19.50,WSW,244,0.0,0.0,80,0.00,,,0.00,Wunderground v.1.15,2014-01-24 03:30:00,
2014-01-23 22:35:00,-7.3,-11.8,19.50,WSW,244,0.0,0.0,80,0.00,,,0.00,Wunderground v.1.15,2014-01-24 03:35:00,
2014-01-23 22:40:00,-7.3,-11.8,19.50,WSW,244,0.0,0.0,80,0.00,,,0.00,Wunderground v.1.15,2014-01-24 03:40:00,
2014-01-23 22:50:00,-7.3,-11.8,19.50,WSW,244,0.0,0.0,80,0.00,,,0.00,Wunderground v.1.15,2014-01-24 03:50:00,
2014-01-23 23:00:00,-7.6,-12.1,19.50,WSW,244,0.0,0.0,80,0.00,,,0.00,Wunderground v.1.15,2014-01-24 04:00:00,
2014-01-23 23:10:00,-8.0,-12.5,19.50,WSW,244,0.0,0.0,80,0.00,,,0.00,Wunderground v.1.15,2014-01-24 04:10:00,
2014-01-23 23:20:00,-7.7,-12.0,19.50,WSW,244,0.0,0.0,81,0.00,,,0.00,Wunderground v.1.15,2014-01-24 04:20:00,
2014-01-23 23:25:00,-7.9,-12.4,19.50,WSW,244,0.0,0.0,80,0.00,,,0.00,Wunderground v.1.15,2014-01-24 04:25:00,
2014-01-23 23:35:00,-7.6,-11.9,19.50,WSW,244,1.0,1.0,81,0.00,,,0.00,Wunderground v.1.15,2014-01-24 04:35:00,
2014-01-23 23:40:00,-7.7,-12.0,19.50,WSW,244,1.0,1.0,81,0.00,,,0.00,Wunderground v.1.15,2014-01-24 04:40:00,
2014-01-23 23:50:00,-8.8,-13.3,19.50,WSW,244,0.0,0.0,80,0.00,,,0.00,Wunderground v.1.15,2014-01-24 04:50:00,
2014-01-23 23:56:00,-9.0,-13.5,19.50,WSW,244,0.0,0.0,80,0.00,,,0.00,Wunderground v.1.15,2014-01-24 04:56:00,